Terminal Aerodrome Forecast
Issued by NWS Omaha/Valley, NE

Home | Current Version | Previous Version | Graphics & Text | Print | Product List | Glossary On
Versions: 1 2 3 4 5 6 7 8 9 10 11 12 13 14 15 16 17 18 19 20 21 22 23 24 25 26 27 28 29 30
000
FTUS43 KOAX 260034 AAA
TAFOFK
TAF AMD
KOFK 260034Z 2601/2624 18009KT P6SM SCT050 BKN150
      TEMPO 2601/2603 5SM -TSRA BKN040CB
     FM260400 29005KT P6SM OVC100
     FM261200 35009KT P6SM OVC025
     FM261700 35010KT P6SM BKN045=

USA.gov is the U.S. government's official web portal to all federal, state and local government web resources and services.